Time;durP1;ratioP1;P1;durP2;ratioP2;P2;SDS_P1;SDS_P2;PMS_P1;PMS_P2;Temp;Humidity;BMP_temperature;BMP_pressure;BME280_temperature;BME280_humidity;BME280_pressure;Samples;Min_cycle;Max_cycle;Signal;HPM_P1;HPM_P2
2021/05/15 00:00:44;;;;;;;5.50;3.95;;;16.60;55.10;;;;;;4762472;30;20040;-84
2021/05/15 00:03:10;;;;;;;5.95;4.00;;;16.70;55.20;;;;;;4760426;30;20130;-83
2021/05/15 00:05:36;;;;;;;4.32;3.42;;;16.60;55.20;;;;;;4764113;30;20102;-84
2021/05/15 00:08:03;;;;;;;4.90;3.90;;;16.60;55.30;;;;;;4739604;30;20032;-85
2021/05/15 00:10:30;;;;;;;5.35;3.78;;;16.50;55.20;;;;;;4722634;30;20047;-85
2021/05/15 00:12:56;;;;;;;5.10;3.60;;;16.50;55.30;;;;;;4737190;30;20063;-84
2021/05/15 00:15:22;;;;;;;5.70;4.30;;;16.50;55.30;;;;;;4755981;30;20028;-84
2021/05/15 00:17:48;;;;;;;6.10;4.45;;;16.50;55.40;;;;;;4752369;30;20043;-86
2021/05/15 00:20:15;;;;;;;5.25;4.22;;;16.40;55.40;;;;;;4731446;30;20055;-85
2021/05/15 00:22:43;;;;;;;5.30;3.95;;;16.40;55.40;;;;;;4752098;30;20044;-85
2021/05/15 00:25:11;;;;;;;4.78;3.92;;;16.40;55.50;;;;;;4741205;30;20032;-84
2021/05/15 00:27:37;;;;;;;5.97;4.13;;;16.40;55.50;;;;;;4768056;30;20478;-85
2021/05/15 00:30:09;;;;;;;6.05;4.40;;;16.40;55.60;;;;;;4753103;30;20040;-85
2021/05/15 00:32:34;;;;;;;5.20;3.85;;;16.30;55.60;;;;;;4753643;30;20487;-85
2021/05/15 00:35:00;;;;;;;6.03;4.68;;;16.30;55.60;;;;;;4754248;30;20056;-85
2021/05/15 00:37:27;;;;;;;5.03;4.10;;;16.30;55.70;;;;;;4746557;30;20486;-85
2021/05/15 00:39:53;;;;;;;5.18;3.80;;;16.30;55.70;;;;;;4753702;30;20035;-85
2021/05/15 00:42:19;;;;;;;5.45;4.10;;;16.20;55.70;;;;;;4750141;30;20055;-85
2021/05/15 00:44:47;;;;;;;5.90;4.15;;;16.20;55.80;;;;;;4765901;30;20118;-85
2021/05/15 00:47:16;;;;;;;6.25;4.18;;;16.20;55.80;;;;;;4718340;30;20036;-85
2021/05/15 00:49:43;;;;;;;5.47;4.03;;;16.20;55.90;;;;;;4767935;30;20058;-85
2021/05/15 00:52:09;;;;;;;5.03;4.05;;;16.20;56.50;;;;;;4748339;30;20043;-85
2021/05/15 00:54:37;;;;;;;5.25;3.97;;;16.10;55.90;;;;;;4751269;30;20048;-85
2021/05/15 00:57:04;;;;;;;5.22;4.18;;;16.10;55.90;;;;;;4760172;30;20028;-85
2021/05/15 00:59:30;;;;;;;5.70;4.30;;;16.10;56.00;;;;;;4757148;30;20040;-85
2021/05/15 01:01:56;;;;;;;5.50;3.78;;;16.10;56.00;;;;;;4736961;30;20119;-84
2021/05/15 01:04:22;;;;;;;5.90;3.85;;;16.00;56.00;;;;;;4780291;30;20048;-84
2021/05/15 01:06:49;;;;;;;5.55;4.28;;;16.00;56.00;;;;;;4753528;30;20436;-85
2021/05/15 01:09:14;;;;;;;5.70;4.10;;;16.00;56.00;;;;;;4753241;30;20032;-84
2021/05/15 01:11:40;;;;;;;5.47;4.13;;;16.00;56.00;;;;;;4751254;30;20397;-85
2021/05/15 01:14:06;;;;;;;6.28;3.90;;;16.00;56.10;;;;;;4765671;30;20031;-84
2021/05/15 01:16:32;;;;;;;5.05;4.05;;;15.90;56.10;;;;;;4757946;30;20066;-85
2021/05/15 01:18:59;;;;;;;5.88;4.10;;;15.90;56.10;;;;;;4756649;30;20032;-85
2021/05/15 01:21:25;;;;;;;5.55;4.78;;;15.90;56.10;;;;;;4762968;30;20454;-85
2021/05/15 01:24:44;;;;;;;5.68;4.55;;;15.90;56.20;;;;;;4768231;30;20079;-85
2021/05/15 01:27:56;;;;;;;5.55;3.92;;;15.90;56.30;;;;;;4782082;30;20038;-86
2021/05/15 01:30:41;;;;;;;5.05;3.97;;;15.80;56.30;;;;;;4743454;30;20075;-85
2021/05/15 01:33:07;;;;;;;5.22;4.03;;;15.80;56.10;;;;;;4737844;30;20470;-85
2021/05/15 01:35:33;;;;;;;5.90;4.13;;;15.80;56.30;;;;;;4756948;30;20036;-85
2021/05/15 01:37:58;;;;;;;6.07;4.18;;;15.80;56.30;;;;;;4723133;30;20067;-85
2021/05/15 01:40:24;;;;;;;6.10;4.68;;;15.70;56.30;;;;;;4759384;30;20789;-85
2021/05/15 01:42:50;;;;;;;6.00;4.30;;;15.70;56.30;;;;;;4765526;30;20509;-85
2021/05/15 01:45:16;;;;;;;6.28;4.32;;;15.70;56.30;;;;;;4757500;30;20032;-85
2021/05/15 01:47:42;;;;;;;6.40;4.45;;;15.70;56.40;;;;;;4746703;30;20040;-85
2021/05/15 01:50:12;;;;;;;5.80;4.60;;;15.70;56.50;;;;;;4756998;30;20036;-85
2021/05/15 01:52:38;;;;;;;5.93;4.15;;;15.70;56.50;;;;;;4740426;30;20032;-85
2021/05/15 01:55:11;;;;;;;5.25;4.18;;;15.60;56.40;;;;;;4771000;30;20038;-86
2021/05/15 01:57:37;;;;;;;5.97;4.65;;;15.60;56.50;;;;;;4759063;30;20033;-86
2021/05/15 02:00:04;;;;;;;5.55;4.07;;;15.60;56.50;;;;;;4766334;30;20478;-86
2021/05/15 02:02:38;;;;;;;;;;;15.60;56.50;;;;;;4771151;30;20044;-86
2021/05/15 02:05:06;;;;;;;4.65;3.70;;;15.60;56.40;;;;;;4758251;30;20356;-86
2021/05/15 02:07:32;;;;;;;6.03;4.13;;;15.50;56.40;;;;;;4753708;30;20494;-86
2021/05/15 02:09:58;;;;;;;5.72;4.32;;;15.50;56.50;;;;;;4762890;30;20028;-86
2021/05/15 02:12:24;;;;;;;5.22;4.25;;;15.50;56.60;;;;;;4723058;30;20043;-86
2021/05/15 02:14:49;;;;;;;5.05;4.10;;;15.50;56.70;;;;;;4767150;30;20040;-86
2021/05/15 02:17:15;;;;;;;5.60;4.00;;;15.50;56.70;;;;;;4755684;30;20040;-86
2021/05/15 02:19:41;;;;;;;5.53;4.50;;;15.40;56.70;;;;;;4751680;30;20037;-86
2021/05/15 02:22:07;;;;;;;7.28;5.07;;;15.40;56.70;;;;;;4757141;30;20371;-86
2021/05/15 02:24:33;;;;;;;5.60;4.55;;;15.40;57.40;;;;;;4755238;30;20479;-86
2021/05/15 02:26:58;;;;;;;6.05;4.45;;;15.40;56.80;;;;;;4746735;30;20036;-86
2021/05/15 02:29:24;;;;;;;6.43;4.65;;;15.40;57.10;;;;;;4753351;30;20448;-86
2021/05/15 02:31:50;;;;;;;5.80;4.70;;;15.30;56.80;;;;;;4733594;30;20059;-87
2021/05/15 02:34:16;;;;;;;6.60;4.80;;;15.30;56.80;;;;;;4761065;30;20027;-86
2021/05/15 02:36:41;;;;;;;6.50;4.78;;;15.30;56.90;;;;;;4748118;30;20039;-86
2021/05/15 02:39:07;;;;;;;5.60;4.50;;;15.30;56.80;;;;;;4732017;30;20122;-86
2021/05/15 02:41:33;;;;;;;6.63;4.93;;;15.30;56.90;;;;;;4760652;30;20047;-86
2021/05/15 02:43:59;;;;;;;6.38;5.03;;;15.20;56.90;;;;;;4755413;30;20047;-86
2021/05/15 02:46:24;;;;;;;6.38;4.72;;;15.20;56.90;;;;;;4753610;30;20037;-86
2021/05/15 02:48:50;;;;;;;6.10;4.65;;;15.20;56.90;;;;;;4739343;30;20033;-86
2021/05/15 02:51:16;;;;;;;6.40;4.82;;;15.20;57.00;;;;;;4753583;30;20031;-87
2021/05/15 02:53:42;;;;;;;6.38;4.53;;;15.20;57.00;;;;;;4753314;30;20040;-87
2021/05/15 02:56:07;;;;;;;5.45;4.25;;;15.20;57.00;;;;;;4769940;30;20063;-85
2021/05/15 02:58:33;;;;;;;6.53;4.40;;;15.10;57.00;;;;;;4753031;30;20047;-86
2021/05/15 03:00:59;;;;;;;5.88;4.28;;;15.10;57.00;;;;;;4741177;30;20024;-86
2021/05/15 03:03:25;;;;;;;5.95;4.38;;;15.10;57.10;;;;;;4752915;30;20502;-87
2021/05/15 03:05:50;;;;;;;6.72;4.78;;;15.10;57.10;;;;;;4756428;30;20074;-86
2021/05/15 03:08:16;;;;;;;7.40;4.93;;;15.10;57.20;;;;;;4752913;30;20116;-86
2021/05/15 03:10:42;;;;;;;5.80;4.30;;;15.10;57.20;;;;;;4735496;30;20036;-85
2021/05/15 03:13:08;;;;;;;6.38;4.65;;;15.00;57.20;;;;;;4752292;30;20036;-85
2021/05/15 03:15:33;;;;;;;5.82;4.47;;;15.00;57.20;;;;;;4752467;30;20040;-86
2021/05/15 03:17:59;;;;;;;6.10;4.50;;;15.00;57.20;;;;;;4750981;30;20028;-86
2021/05/15 03:20:26;;;;;;;5.80;4.38;;;15.00;57.20;;;;;;4755582;30;20036;-86
2021/05/15 03:22:52;;;;;;;5.82;4.82;;;15.00;57.30;;;;;;4752684;30;20051;-85
2021/05/15 03:25:20;;;;;;;6.80;4.53;;;15.00;57.40;;;;;;4768902;30;20498;-85
2021/05/15 03:27:45;;;;;;;6.25;4.97;;;15.00;57.40;;;;;;4756756;30;20036;-85
2021/05/15 03:30:13;;;;;;;6.65;4.82;;;14.90;57.40;;;;;;4751258;30;20388;-86
2021/05/15 03:32:41;;;;;;;5.75;4.32;;;14.90;57.40;;;;;;4754361;30;20028;-86
2021/05/15 03:35:08;;;;;;;6.43;4.55;;;14.90;57.50;;;;;;4752762;30;20096;-86
2021/05/15 03:37:34;;;;;;;6.03;4.72;;;14.90;57.50;;;;;;4759894;30;20036;-87
2021/05/15 03:40:00;;;;;;;6.80;4.70;;;14.90;58.10;;;;;;4753452;30;20508;-86
2021/05/15 03:42:26;;;;;;;6.80;5.18;;;14.90;57.50;;;;;;4767647;30;20498;-86
2021/05/15 03:44:52;;;;;;;6.93;5.10;;;14.90;57.60;;;;;;4727849;30;20040;-85
2021/05/15 03:47:18;;;;;;;6.43;4.50;;;14.80;57.50;;;;;;4747545;30;20123;-87
2021/05/15 03:49:43;;;;;;;6.25;4.90;;;14.80;57.60;;;;;;4763705;30;20066;-85
2021/05/15 03:52:09;;;;;;;6.90;5.10;;;14.80;57.60;;;;;;4738434;30;20128;-87
2021/05/15 03:54:36;;;;;;;6.78;4.97;;;14.80;57.70;;;;;;4738675;30;20045;-86
2021/05/15 03:57:03;;;;;;;6.13;4.63;;;14.80;57.70;;;;;;4750972;30;20474;-86
2021/05/15 03:59:30;;;;;;;6.65;4.90;;;14.80;57.70;;;;;;4751369;30;20534;-85
2021/05/15 04:01:56;;;;;;;5.63;4.60;;;14.80;57.70;;;;;;4742595;30;20510;-85
2021/05/15 04:04:22;;;;;;;6.63;5.03;;;14.70;57.70;;;;;;4751893;30;20044;-86
2021/05/15 04:06:48;;;;;;;6.10;4.63;;;14.70;57.80;;;;;;4728536;30;20119;-86
2021/05/15 04:09:14;;;;;;;6.25;4.75;;;14.70;57.80;;;;;;4749333;30;20035;-85
2021/05/15 04:11:40;;;;;;;6.55;4.82;;;14.80;57.80;;;;;;4763079;30;20028;-85
2021/05/15 04:14:25;;;;;;;6.20;4.78;;;14.70;57.80;;;;;;4746519;30;20042;-85
2021/05/15 04:19:32;;;;;;;6.15;4.68;;;14.70;57.80;;;;;;4751891;30;20035;-85
2021/05/15 04:21:57;;;;;;;5.85;4.60;;;14.70;57.90;;;;;;4751756;30;20040;-86
2021/05/15 04:24:26;;;;;;;6.20;4.55;;;14.70;57.90;;;;;;4764092;30;20127;-85
2021/05/15 04:26:54;;;;;;;6.28;4.95;;;14.70;58.10;;;;;;4740871;30;20032;-85
2021/05/15 04:29:21;;;;;;;6.05;4.63;;;14.70;58.10;;;;;;4771629;30;20131;-86
2021/05/15 04:31:48;;;;;;;7.53;5.43;;;14.60;58.10;;;;;;4766108;30;20051;-84
2021/05/15 04:34:15;;;;;;;6.40;4.88;;;14.60;58.10;;;;;;4757202;30;20035;-85
2021/05/15 04:36:41;;;;;;;6.13;5.07;;;14.60;58.70;;;;;;4735594;30;20235;-85
2021/05/15 04:39:07;;;;;;;6.40;4.63;;;14.60;58.30;;;;;;4764632;30;20036;-85
2021/05/15 04:41:33;;;;;;;6.78;5.32;;;14.60;58.20;;;;;;4760488;30;20032;-85
2021/05/15 04:43:59;;;;;;;7.40;5.05;;;14.60;58.20;;;;;;4732149;30;20075;-85
2021/05/15 04:46:25;;;;;;;6.10;4.88;;;14.60;58.20;;;;;;4762899;30;20071;-86
2021/05/15 04:48:50;;;;;;;6.68;5.30;;;14.60;58.20;;;;;;4751893;30;20032;-86
2021/05/15 04:51:16;;;;;;;6.40;5.30;;;14.60;58.30;;;;;;4751887;30;20040;-85
2021/05/15 04:53:42;;;;;;;7.13;5.35;;;14.60;58.30;;;;;;4728981;30;20465;-85
2021/05/15 04:56:11;;;;;;;7.28;6.00;;;14.60;58.30;;;;;;4760741;30;20395;-85
2021/05/15 04:58:37;;;;;;;6.72;5.40;;;14.60;58.30;;;;;;4736764;30;20040;-86
2021/05/15 05:01:03;;;;;;;7.60;5.43;;;14.60;58.40;;;;;;4754030;30;20028;-86
2021/05/15 05:03:29;;;;;;;7.22;5.32;;;14.50;58.40;;;;;;4753668;30;20040;-85
2021/05/15 05:05:55;;;;;;;7.38;5.68;;;14.50;58.40;;;;;;4751985;30;20069;-86
2021/05/15 05:08:24;;;;;;;7.90;6.05;;;14.50;58.40;;;;;;4754220;30;20066;-83
2021/05/15 05:10:51;;;;;;;7.97;6.50;;;14.50;58.40;;;;;;4749189;30;20036;-85
2021/05/15 05:13:16;;;;;;;7.75;5.57;;;14.50;58.40;;;;;;4756163;30;20047;-83
2021/05/15 05:15:42;;;;;;;8.93;6.43;;;14.50;58.50;;;;;;4754975;30;20032;-82
2021/05/15 05:18:08;;;;;;;7.15;5.45;;;14.50;58.50;;;;;;4737560;30;20039;-84
2021/05/15 05:20:34;;;;;;;7.20;5.53;;;14.50;58.50;;;;;;4749826;30;20035;-83
2021/05/15 05:23:00;;;;;;;6.93;5.28;;;14.50;58.50;;;;;;4739549;30;20098;-85
2021/05/15 05:25:26;;;;;;;7.35;5.70;;;14.50;58.50;;;;;;4753591;30;20040;-84
2021/05/15 05:27:52;;;;;;;7.22;5.72;;;14.50;58.50;;;;;;4763395;30;20063;-86
2021/05/15 05:30:20;;;;;;;7.70;5.85;;;14.50;58.60;;;;;;4746685;30;20059;-84
2021/05/15 05:32:47;;;;;;;7.38;5.78;;;14.50;58.60;;;;;;4753518;30;20036;-86
2021/05/15 05:35:14;;;;;;;7.90;5.50;;;14.50;58.60;;;;;;4751191;30;20028;-84
2021/05/15 05:37:40;;;;;;;8.43;6.20;;;14.50;58.70;;;;;;4762104;30;20032;-83
2021/05/15 05:40:10;;;;;;;8.63;6.18;;;14.50;58.70;;;;;;4753748;30;20028;-83
2021/05/15 05:42:37;;;;;;;8.00;5.80;;;14.50;58.70;;;;;;4767755;30;20042;-83
2021/05/15 05:45:04;;;;;;;8.15;6.05;;;14.50;58.70;;;;;;4765199;30;20394;-85
2021/05/15 05:47:30;;;;;;;7.85;6.30;;;14.50;58.80;;;;;;4751310;30;20035;-85
2021/05/15 05:49:56;;;;;;;8.57;6.28;;;14.50;58.80;;;;;;4762677;30;20033;-85
2021/05/15 05:52:22;;;;;;;8.60;6.28;;;14.50;58.80;;;;;;4751743;30;20032;-84
2021/05/15 05:54:47;;;;;;;7.50;6.10;;;14.50;58.80;;;;;;4752140;30;20553;-86
2021/05/15 05:57:13;;;;;;;8.13;6.28;;;14.50;59.50;;;;;;4756758;30;20031;-84
2021/05/15 05:59:49;;;;;;;7.10;5.40;;;14.50;58.80;;;;;;4750656;30;20075;-94
2021/05/15 06:02:17;;;;;;;7.25;5.43;;;14.60;58.90;;;;;;4755712;30;20035;-91
2021/05/15 06:04:53;;;;;;;;;;;;;;;;;;;;;
2021/05/15 06:07:19;;;;;;;6.82;5.20;;;14.60;59.00;;;;;;4765624;30;20636;-92
2021/05/15 06:09:48;;;;;;;8.20;6.05;;;14.60;59.00;;;;;;4761042;30;20435;-93
2021/05/15 06:12:15;;;;;;;7.88;6.18;;;14.60;59.00;;;;;;4758968;30;20132;-93
2021/05/15 06:14:41;;;;;;;7.85;5.65;;;14.50;59.00;;;;;;4764855;30;20111;-94
2021/05/15 06:17:09;;;;;;;7.22;5.68;;;14.60;59.00;;;;;;4755921;30;20119;-91
2021/05/15 06:19:35;;;;;;;8.25;6.10;;;14.60;59.10;;;;;;4753772;30;20028;-88
2021/05/15 06:22:01;;;;;;;8.00;6.07;;;14.60;59.10;;;;;;4745811;30;20036;-86
2021/05/15 06:24:42;;;;;;;8.18;6.32;;;14.60;59.10;;;;;;4739035;30;20414;-92
2021/05/15 06:28:47;;;;;;;8.18;6.13;;;14.60;59.20;;;;;;4745698;30;20490;-93
2021/05/15 06:31:20;;;;;;;6.65;5.25;;;14.60;59.30;;;;;;4759984;30;20052;-94
2021/05/15 06:34:06;;;;;;;8.00;5.82;;;14.60;58.90;;;;;;4738635;30;20047;-96
2021/05/15 06:37:38;;;;;;;8.07;6.28;;;14.60;59.20;;;;;;4758150;30;20043;-95
2021/05/15 06:40:26;;;;;;;;;;;;;;;;;;;;;
2021/05/15 06:43:28;;;;;;;7.90;5.88;;;14.70;59.10;;;;;;4765722;30;20051;-95
2021/05/15 06:46:32;;;;;;;8.35;6.25;;;14.70;59.30;;;;;;4768630;30;20039;-93
2021/05/15 06:49:21;;;;;;;7.70;5.60;;;14.70;59.10;;;;;;4755444;30;20040;-93
2021/05/15 06:51:52;;;;;;;8.63;6.45;;;14.70;59.20;;;;;;4759593;30;20060;-94
2021/05/15 06:54:18;;;;;;;8.98;6.85;;;14.70;59.20;;;;;;4739370;30;20032;-93
2021/05/15 06:56:46;;;;;;;10.02;7.15;;;14.70;59.30;;;;;;4770271;30;20020;-94
2021/05/15 06:59:23;;;;;;;9.95;7.72;;;14.70;59.30;;;;;;4755859;30;20040;-93
2021/05/15 07:01:54;;;;;;;9.82;7.78;;;14.70;59.40;;;;;;4773695;30;20049;-94
2021/05/15 07:04:23;;;;;;;10.10;7.90;;;14.70;59.40;;;;;;4756871;30;20104;-87
2021/05/15 07:07:02;;;;;;;;;;;;;;;;;;;;;
2021/05/15 07:09:39;;;;;;;10.07;8.13;;;14.80;59.40;;;;;;5115705;24;20086;-92
2021/05/15 07:12:08;;;;;;;10.43;8.15;;;14.80;59.40;;;;;;4736014;30;20440;-90
2021/05/15 07:14:34;;;;;;;11.23;7.78;;;14.80;59.40;;;;;;4759090;30;20111;-91
2021/05/15 07:17:00;;;;;;;11.02;8.77;;;14.80;59.40;;;;;;4738779;30;20130;-91
2021/05/15 07:22:34;;;;;;;11.68;8.20;;;14.90;59.50;;;;;;4754943;30;20105;-93
2021/05/15 07:25:03;;;;;;;11.32;8.10;;;14.90;59.50;;;;;;4745749;30;20055;-96
2021/05/15 07:27:39;;;;;;;11.15;8.20;;;14.90;59.50;;;;;;4760329;30;20035;-96
2021/05/15 07:30:06;;;;;;;11.65;8.15;;;14.90;59.50;;;;;;4758863;30;20042;-86
2021/05/15 07:32:35;;;;;;;10.40;8.20;;;14.90;59.50;;;;;;4760241;30;20561;-93
2021/05/15 07:35:01;;;;;;;10.77;8.60;;;14.90;59.40;;;;;;4757801;30;20459;-91
2021/05/15 07:37:26;;;;;;;11.82;9.32;;;15.00;59.50;;;;;;4753188;30;20032;-92
2021/05/15 07:39:53;;;;;;;11.55;8.55;;;15.00;59.50;;;;;;4759669;30;20051;-96
2021/05/15 07:42:19;;;;;;;10.45;8.52;;;15.00;59.50;;;;;;4746399;30;20028;-92
2021/05/15 07:44:57;;;;;;;11.40;8.57;;;15.00;59.40;;;;;;4770385;30;20054;-96
2021/05/15 07:47:29;;;;;;;11.73;8.90;;;15.00;59.50;;;;;;4760880;30;20044;-93
2021/05/15 07:49:58;;;;;;;12.10;9.23;;;15.10;59.40;;;;;;4763510;30;20055;-93
2021/05/15 07:52:28;;;;;;;12.85;9.23;;;15.10;59.40;;;;;;4758736;30;20028;-96
2021/05/15 07:55:09;;;;;;;;;;;;;;;;;;;;;
2021/05/15 07:57:46;;;;;;;10.98;8.25;;;15.10;59.40;;;;;;4745698;30;20075;-95
2021/05/15 08:00:33;;;;;;;11.70;9.05;;;15.10;59.40;;;;;;4774938;30;20158;-96
2021/05/15 08:03:13;;;;;;;11.93;8.63;;;15.20;59.50;;;;;;4745557;30;20042;-96
2021/05/15 08:05:54;;;;;;;11.57;8.82;;;15.20;59.40;;;;;;4750136;30;20036;-92
2021/05/15 08:08:20;;;;;;;11.00;8.40;;;15.20;59.30;;;;;;4759699;30;20032;-96
2021/05/15 08:11:25;;;;;;;11.32;8.68;;;15.30;59.40;;;;;;4744105;30;20518;-95
2021/05/15 08:14:43;;;;;;;10.88;8.63;;;15.30;59.50;;;;;;4754654;30;20054;-95
2021/05/15 08:17:11;;;;;;;10.13;7.97;;;15.30;59.40;;;;;;4751897;30;20391;-93
2021/05/15 08:19:37;;;;;;;10.52;8.63;;;15.40;59.20;;;;;;4733961;30;20362;-90
2021/05/15 08:22:05;;;;;;;10.95;8.43;;;15.40;59.30;;;;;;4748550;30;20036;-91
2021/05/15 08:24:31;;;;;;;11.38;8.95;;;15.40;59.30;;;;;;4737097;30;20052;-85
2021/05/15 08:26:57;;;;;;;11.07;8.25;;;15.40;59.30;;;;;;4739276;30;20037;-88
2021/05/15 08:29:24;;;;;;;11.18;8.35;;;15.50;59.30;;;;;;4736882;30;20032;-94
2021/05/15 08:31:50;;;;;;;11.90;8.80;;;15.50;59.30;;;;;;4740192;30;20178;-91
2021/05/15 08:34:17;;;;;;;10.38;8.38;;;15.50;59.30;;;;;;4752071;30;20040;-92
2021/05/15 08:36:43;;;;;;;10.75;8.55;;;15.60;59.30;;;;;;4756122;30;20027;-84
2021/05/15 08:39:11;;;;;;;11.07;8.65;;;15.60;59.20;;;;;;4721860;30;20097;-90
2021/05/15 08:41:37;;;;;;;12.75;9.23;;;15.70;59.20;;;;;;4751897;30;20050;-87
2021/05/15 08:44:06;;;;;;;10.52;8.23;;;15.70;59.10;;;;;;4722142;30;20040;-86
2021/05/15 08:46:32;;;;;;;11.60;8.70;;;15.70;59.10;;;;;;4748543;30;20036;-93
2021/05/15 08:49:06;;;;;;;10.85;8.60;;;15.80;59.10;;;;;;4754817;30;20300;-87
2021/05/15 08:51:32;;;;;;;11.55;8.57;;;15.80;59.10;;;;;;4765811;30;20090;-88
2021/05/15 08:53:59;;;;;;;11.57;8.52;;;15.90;59.00;;;;;;4750261;30;20060;-88
2021/05/15 08:56:26;;;;;;;11.32;8.50;;;15.90;58.90;;;;;;4714204;30;20040;-89
2021/05/15 08:58:53;;;;;;;11.77;8.95;;;15.90;58.90;;;;;;4755104;30;20036;-87
2021/05/15 09:01:20;;;;;;;11.98;8.88;;;16.00;58.90;;;;;;4760033;30;20516;-94
2021/05/15 09:03:46;;;;;;;11.45;8.77;;;16.10;58.90;;;;;;4759980;30;20064;-91
2021/05/15 09:06:12;;;;;;;10.10;8.13;;;16.10;58.80;;;;;;4755548;30;20074;-87
2021/05/15 09:08:38;;;;;;;10.70;8.30;;;16.10;58.80;;;;;;4746062;30;20490;-88
2021/05/15 09:11:04;;;;;;;11.40;8.63;;;16.20;58.80;;;;;;4755959;30;20052;-89
2021/05/15 09:13:31;;;;;;;12.57;8.80;;;16.20;58.70;;;;;;4751519;30;20119;-86
2021/05/15 09:16:02;;;;;;;10.77;8.77;;;16.20;58.70;;;;;;4749283;30;20101;-89
2021/05/15 09:18:29;;;;;;;10.23;8.27;;;16.30;58.70;;;;;;4737622;30;20041;-89
2021/05/15 09:20:58;;;;;;;10.73;8.40;;;16.30;58.60;;;;;;4748509;30;20064;-87
2021/05/15 09:23:29;;;;;;;11.20;8.65;;;16.40;58.70;;;;;;4756248;30;20052;-87
2021/05/15 09:25:58;;;;;;;10.27;7.72;;;16.40;58.60;;;;;;4736614;30;20089;-88
2021/05/15 09:28:50;;;;;;;10.52;8.30;;;16.40;58.60;;;;;;4771299;30;20462;-88
2021/05/15 09:31:42;;;;;;;9.80;7.90;;;16.40;58.60;;;;;;4750193;30;20107;-88
2021/05/15 09:34:08;;;;;;;9.68;7.88;;;16.50;58.50;;;;;;4755983;30;20123;-85
2021/05/15 09:36:45;;;;;;;10.68;8.27;;;16.50;58.40;;;;;;4768238;30;20032;-86
2021/05/15 09:39:16;;;;;;;10.85;8.40;;;16.60;58.50;;;;;;4754917;30;20127;-86
2021/05/15 09:41:59;;;;;;;9.40;7.78;;;16.60;58.40;;;;;;4782361;30;20095;-89
2021/05/15 09:44:27;;;;;;;10.90;8.20;;;16.60;58.50;;;;;;4764817;30;20051;-89
2021/05/15 09:46:54;;;;;;;9.88;7.75;;;16.60;58.30;;;;;;4753984;30;20029;-79
2021/05/15 09:49:25;;;;;;;9.68;7.82;;;16.70;58.40;;;;;;4765161;30;20087;-79
2021/05/15 09:52:00;;;;;;;9.40;7.38;;;16.70;58.40;;;;;;4763847;30;20355;-79
2021/05/15 09:54:32;;;;;;;9.50;8.00;;;16.70;58.40;;;;;;4745353;30;20044;-79
2021/05/15 09:57:02;;;;;;;9.73;7.50;;;16.80;58.40;;;;;;4754223;30;20064;-83
2021/05/15 09:59:33;;;;;;;9.52;7.50;;;16.80;58.30;;;;;;4752190;30;20040;-83
2021/05/15 10:02:02;;;;;;;8.93;7.15;;;16.90;58.40;;;;;;4753644;30;20095;-83
2021/05/15 10:04:28;;;;;;;9.65;7.43;;;16.90;58.30;;;;;;4759114;30;20470;-84
2021/05/15 10:06:56;;;;;;;8.43;6.97;;;16.90;58.30;;;;;;4740903;30;20090;-83
2021/05/15 10:09:29;;;;;;;9.88;7.38;;;17.00;58.80;;;;;;4764808;30;20036;-83
2021/05/15 10:11:55;;;;;;;8.95;7.20;;;17.10;58.30;;;;;;4765758;30;20459;-83
2021/05/15 10:14:22;;;;;;;9.52;7.82;;;17.10;58.10;;;;;;4756600;30;20044;-83
2021/05/15 10:16:48;;;;;;;10.00;7.95;;;17.10;58.10;;;;;;4760123;30;20040;-84
2021/05/15 10:19:15;;;;;;;9.60;7.65;;;17.10;58.00;;;;;;4757796;30;20096;-84
2021/05/15 10:21:44;;;;;;;9.65;7.80;;;17.20;58.00;;;;;;4771865;30;20039;-87
2021/05/15 10:24:21;;;;;;;9.32;7.55;;;17.30;58.00;;;;;;4744573;30;20048;-82
2021/05/15 10:26:59;;;;;;;9.80;7.50;;;17.40;58.00;;;;;;4753722;30;20474;-82
2021/05/15 10:29:46;;;;;;;9.07;6.95;;;17.40;58.10;;;;;;4763246;30;20044;-83
2021/05/15 10:32:15;;;;;;;8.15;6.65;;;17.50;58.00;;;;;;4746329;30;20059;-89
2021/05/15 10:34:46;;;;;;;8.98;7.40;;;17.50;57.80;;;;;;4762316;30;20119;-79
2021/05/15 10:37:16;;;;;;;8.75;7.00;;;17.60;57.90;;;;;;4763783;30;20043;-82
2021/05/15 10:39:42;;;;;;;8.55;6.97;;;17.70;57.80;;;;;;4753370;30;20189;-79
2021/05/15 10:42:09;;;;;;;8.90;7.15;;;17.80;57.70;;;;;;4770055;30;20119;-82
2021/05/15 10:44:43;;;;;;;8.45;6.80;;;17.80;57.70;;;;;;4751388;30;20079;-81
2021/05/15 10:47:09;;;;;;;8.23;6.50;;;17.90;57.60;;;;;;4767666;30;20477;-82
2021/05/15 10:49:35;;;;;;;8.38;6.25;;;18.10;57.50;;;;;;4748954;30;20123;-80
2021/05/15 10:52:11;;;;;;;8.90;6.65;;;18.10;57.40;;;;;;4760287;30;20036;-81
2021/05/15 10:54:51;;;;;;;9.18;7.15;;;18.10;57.40;;;;;;4760827;30;20399;-80
2021/05/15 10:57:26;;;;;;;7.70;6.32;;;18.20;57.20;;;;;;4769532;30;20024;-80
2021/05/15 10:59:56;;;;;;;7.93;6.30;;;18.30;57.10;;;;;;4752156;30;20466;-81
2021/05/15 11:02:33;;;;;;;8.90;6.53;;;18.40;57.00;;;;;;4769556;30;20417;-80
2021/05/15 11:05:03;;;;;;;8.13;6.10;;;18.50;57.10;;;;;;4751425;30;20078;-79
2021/05/15 11:07:34;;;;;;;8.40;6.68;;;18.50;56.90;;;;;;4767964;30;20043;-79
2021/05/15 11:10:03;;;;;;;8.55;6.60;;;18.60;56.80;;;;;;4761090;30;20044;-80
2021/05/15 11:12:30;;;;;;;7.75;6.10;;;18.60;56.70;;;;;;4775642;30;20059;-79
2021/05/15 11:15:06;;;;;;;9.07;6.50;;;18.70;56.70;;;;;;4759965;30;20458;-80
2021/05/15 11:17:32;;;;;;;7.72;5.80;;;18.70;56.60;;;;;;4759526;30;20036;-79
2021/05/15 11:20:17;;;;;;;7.85;6.18;;;18.80;56.60;;;;;;4769285;30;20496;-79
2021/05/15 11:22:48;;;;;;;7.50;5.85;;;18.90;56.60;;;;;;4757083;30;20024;-79
2021/05/15 11:25:14;;;;;;;6.65;5.53;;;18.90;56.50;;;;;;4741289;30;20039;-79
2021/05/15 11:27:55;;;;;;;7.63;5.82;;;18.90;56.40;;;;;;4751693;30;20033;-80
2021/05/15 11:30:29;;;;;;;7.95;5.80;;;19.00;56.50;;;;;;4769579;30;20020;-80
2021/05/15 11:33:07;;;;;;;8.15;6.55;;;19.00;56.40;;;;;;4768967;30;20470;-80
2021/05/15 11:35:42;;;;;;;7.30;5.95;;;19.10;56.50;;;;;;4769339;30;20119;-79
2021/05/15 11:38:10;;;;;;;7.43;5.63;;;19.10;56.30;;;;;;4783944;30;20054;-80
2021/05/15 11:40:44;;;;;;;7.47;5.63;;;19.20;56.30;;;;;;4769452;30;20036;-79
2021/05/15 11:43:10;;;;;;;;;;;19.20;56.30;;;;;;4767317;30;20537;-80
2021/05/15 11:45:37;;;;;;;7.20;4.80;;;19.30;56.20;;;;;;4747873;30;20020;-80
2021/05/15 11:48:09;;;;;;;6.72;5.13;;;19.30;56.10;;;;;;4761291;30;20036;-79
2021/05/15 11:50:35;;;;;;;7.18;5.53;;;19.30;56.20;;;;;;4768379;30;20040;-79
2021/05/15 11:53:02;;;;;;;8.75;6.13;;;19.40;56.10;;;;;;4739747;30;20104;-81
2021/05/15 11:55:29;;;;;;;7.28;5.85;;;19.50;56.10;;;;;;4753834;30;20047;-85
2021/05/15 11:57:56;;;;;;;7.68;5.65;;;19.50;56.00;;;;;;4725825;30;20063;-83
2021/05/15 12:00:26;;;;;;;7.28;5.78;;;19.60;56.10;;;;;;4755422;30;20034;-81
2021/05/15 12:02:52;;;;;;;8.05;6.05;;;19.60;56.00;;;;;;4751911;30;20028;-85
2021/05/15 12:05:19;;;;;;;7.85;6.05;;;19.60;55.90;;;;;;4754128;30;20313;-85
2021/05/15 12:07:52;;;;;;;7.28;5.93;;;19.60;55.90;;;;;;4735143;30;20036;-84
2021/05/15 12:10:21;;;;;;;8.50;6.05;;;19.70;55.90;;;;;;4759572;30;20501;-83
2021/05/15 12:12:58;;;;;;;7.25;5.65;;;19.70;55.90;;;;;;4716279;30;20168;-84
2021/05/15 12:15:25;;;;;;;6.55;5.22;;;19.70;56.00;;;;;;4768296;30;20110;-84
2021/05/15 12:17:51;;;;;;;7.10;5.18;;;19.70;55.90;;;;;;4753080;30;20040;-87
2021/05/15 12:20:48;;;;;;;7.50;5.32;;;19.70;56.00;;;;;;4762290;30;20405;-88
2021/05/15 12:23:25;;;;;;;8.23;5.53;;;19.70;56.20;;;;;;4753413;30;20055;-83
2021/05/15 12:26:07;;;;;;;6.13;4.22;;;19.70;56.20;;;;;;4759140;30;20123;-83
2021/05/15 12:28:44;;;;;;;6.15;4.35;;;19.70;56.30;;;;;;4751504;30;20036;-85
2021/05/15 12:31:41;;;;;;;5.43;3.97;;;19.60;56.30;;;;;;4752321;30;20059;-83
2021/05/15 12:34:07;;;;;;;5.20;3.53;;;19.60;56.50;;;;;;4747272;30;20195;-85
2021/05/15 12:36:38;;;;;;;5.38;3.63;;;19.60;56.40;;;;;;4738741;30;20036;-83
2021/05/15 12:39:13;;;;;;;4.97;3.40;;;19.60;56.50;;;;;;4729688;30;20154;-83
2021/05/15 12:41:41;;;;;;;4.13;2.60;;;19.60;56.60;;;;;;4720715;30;20478;-84
2021/05/15 12:44:10;;;;;;;4.50;3.22;;;19.60;56.60;;;;;;4735930;30;20040;-84
2021/05/15 12:46:37;;;;;;;4.63;3.05;;;19.60;56.70;;;;;;4747139;30;20028;-82
2021/05/15 12:49:07;;;;;;;4.05;2.58;;;19.60;56.80;;;;;;4753290;30;20446;-82
2021/05/15 12:51:35;;;;;;;3.92;2.70;;;19.60;56.90;;;;;;4750461;30;20044;-85
2021/05/15 12:54:18;;;;;;;3.95;2.40;;;19.60;56.90;;;;;;4736034;30;20500;-85
2021/05/15 12:57:02;;;;;;;3.50;2.30;;;19.60;57.00;;;;;;4750485;30;20132;-84
2021/05/15 12:59:28;;;;;;;3.33;2.17;;;19.50;56.90;;;;;;4736917;30;20041;-84
2021/05/15 13:02:07;;;;;;;3.38;2.22;;;19.50;56.90;;;;;;4720812;30;20047;-85
2021/05/15 13:04:38;;;;;;;3.95;2.40;;;19.50;57.00;;;;;;4746798;30;20036;-84
2021/05/15 13:07:04;;;;;;;3.60;2.20;;;19.50;57.00;;;;;;4736251;30;20104;-84
2021/05/15 13:09:30;;;;;;;4.18;2.38;;;19.50;57.00;;;;;;4721459;30;20040;-84
2021/05/15 13:11:56;;;;;;;2.53;1.70;;;19.50;57.00;;;;;;4735985;30;20133;-83